Time;durP1;ratioP1;P1;durP2;ratioP2;P2;SDS_P1;SDS_P2;PMS_P1;PMS_P2;Temp;Humidity;BMP_temperature;BMP_pressure;BME280_temperature;BME280_humidity;BME280_pressure;Samples;Min_cycle;Max_cycle;Signal;HPM_P1;HPM_P2
2021/04/20 00:01:45;;;;;;;13.32;7.22;;;;;;;8.13;89.78;101301.81;4985062;28;20397;-73
2021/04/20 00:04:10;;;;;;;19.52;6.95;;;;;;;8.18;89.65;101302.44;4982748;28;20062;-73
2021/04/20 00:06:36;;;;;;;16.95;7.60;;;;;;;8.17;90.26;101302.75;4988994;28;20030;-72
2021/04/20 00:09:06;;;;;;;18.13;7.22;;;;;;;7.98;90.51;101297.00;4988261;28;20152;-73
2021/04/20 00:11:32;;;;;;;22.00;8.02;;;;;;;8.34;89.76;101296.56;4988423;28;20074;-73
2021/04/20 00:13:58;;;;;;;18.65;7.88;;;;;;;8.48;88.98;101287.16;4989525;28;20054;-72
2021/04/20 00:16:23;;;;;;;23.30;7.95;;;;;;;8.23;90.17;101285.38;4989592;28;20467;-73
2021/04/20 00:18:48;;;;;;;18.95;8.15;;;;;;;8.17;89.97;101289.34;4987693;28;20035;-73
2021/04/20 00:21:14;;;;;;;22.55;8.60;;;;;;;8.32;89.97;101275.44;4988721;28;20490;-73
2021/04/20 00:23:39;;;;;;;19.23;8.15;;;;;;;8.09;90.62;101279.47;4994405;28;20117;-72
2021/04/20 00:26:05;;;;;;;17.20;8.25;;;;;;;7.85;92.28;101288.06;4989194;28;20041;-72
2021/04/20 00:28:30;;;;;;;15.15;7.57;;;;;;;7.85;92.84;101284.59;4974234;28;20118;-73
2021/04/20 00:30:56;;;;;;;21.77;8.25;;;;;;;7.49;93.56;101286.88;4981393;28;20055;-73
2021/04/20 00:33:22;;;;;;;16.83;7.80;;;;;;;7.13;96.10;101284.53;4991970;28;20681;-73
2021/04/20 00:35:48;;;;;;;19.67;8.10;;;;;;;7.20;95.54;101282.97;4992254;28;20034;-73
2021/04/20 00:38:14;;;;;;;19.05;8.57;;;;;;;7.15;95.87;101282.34;4991271;28;20038;-72
2021/04/20 00:40:40;;;;;;;23.95;8.23;;;;;;;7.21;95.39;101268.50;4995904;28;20037;-72
2021/04/20 00:43:05;;;;;;;16.63;7.80;;;;;;;7.22;95.40;101278.09;4993091;28;20038;-73
2021/04/20 00:45:33;;;;;;;17.88;8.48;;;;;;;7.03;96.42;101266.91;4993588;28;20030;-73
2021/04/20 00:48:01;;;;;;;15.05;7.88;;;;;;;7.03;95.64;101258.88;4988735;28;20038;-73
2021/04/20 00:50:30;;;;;;;19.70;8.10;;;;;;;6.86;96.61;101258.88;4990707;28;20045;-72
2021/04/20 00:52:56;;;;;;;17.88;8.40;;;;;;;6.66;97.75;101262.16;4989783;28;20042;-72
2021/04/20 00:55:23;;;;;;;19.00;8.23;;;;;;;6.90;97.46;101259.03;4969998;28;20042;-72
2021/04/20 00:57:49;;;;;;;18.55;8.60;;;;;;;7.09;96.77;101267.53;4987577;28;20026;-72
2021/04/20 01:00:26;;;;;;;20.98;8.60;;;;;;;6.73;96.17;101259.81;4989010;28;20030;-73
2021/04/20 01:02:53;;;;;;;17.30;8.07;;;;;;;6.58;97.51;101254.13;4991748;28;20048;-72
2021/04/20 01:05:22;;;;;;;18.88;8.70;;;;;;;6.72;97.47;101258.25;4984969;28;20098;-72
2021/04/20 01:07:48;;;;;;;15.88;8.77;;;;;;;6.67;97.28;101265.63;4987349;28;20065;-71
2021/04/20 01:10:14;;;;;;;19.38;8.82;;;;;;;6.70;97.30;101262.31;4991043;28;20022;-72
2021/04/20 01:12:41;;;;;;;17.48;9.10;;;;;;;6.57;97.96;101274.75;4992223;28;20033;-71
2021/04/20 01:15:09;;;;;;;22.48;9.48;;;;;;;6.56;98.65;101267.84;5002053;22;20050;-74
2021/04/20 01:17:35;;;;;;;18.58;8.88;;;;;;;6.42;99.04;101269.84;4960923;28;20199;-74
2021/04/20 01:20:06;;;;;;;22.85;9.20;;;;;;;6.51;98.70;101259.16;5006786;28;20144;-73
2021/04/20 01:22:33;;;;;;;;;;;;;;;6.86;97.65;101269.59;4985034;28;20023;-74
2021/04/20 01:24:59;;;;;;;18.42;10.40;;;;;;;6.91;96.94;101266.75;4982037;28;19957;-74
2021/04/20 01:27:25;;;;;;;21.52;9.93;;;;;;;6.76;97.92;101269.09;4971124;28;20035;-73
2021/04/20 01:29:53;;;;;;;23.30;10.30;;;;;;;6.62;98.65;101263.13;4973158;28;20093;-73
2021/04/20 01:32:19;;;;;;;20.77;9.82;;;;;;;6.70;99.66;101260.44;4974401;28;20026;-73
2021/04/20 01:34:45;;;;;;;24.95;10.75;;;;;;;6.78;97.70;101261.53;4970476;28;20490;-73
2021/04/20 01:37:11;;;;;;;20.35;10.27;;;;;;;6.69;97.60;101260.75;4968305;28;20066;-73
2021/04/20 01:39:37;;;;;;;24.15;9.68;;;;;;;6.64;97.86;101260.91;4969825;28;20038;-72
2021/04/20 01:42:03;;;;;;;19.20;9.73;;;;;;;6.64;96.95;101261.69;4971032;28;20502;-73
2021/04/20 01:44:28;;;;;;;22.27;9.68;;;;;;;6.25;98.05;101251.09;4973728;28;20499;-72
2021/04/20 01:46:54;;;;;;;20.08;10.05;;;;;;;6.27;99.42;101259.59;4972302;28;20035;-72
2021/04/20 01:49:19;;;;;;;21.80;10.30;;;;;;;6.29;99.09;101257.38;4969670;28;20486;-72
2021/04/20 01:51:45;;;;;;;21.63;10.60;;;;;;;6.26;98.62;101253.44;4973235;28;20066;-72
2021/04/20 01:54:11;;;;;;;22.45;10.80;;;;;;;6.24;99.82;101260.19;4966253;28;20066;-73
2021/04/20 01:56:37;;;;;;;19.63;11.18;;;;;;;6.27;99.69;101255.00;4972499;28;20035;-73
2021/04/20 01:59:03;;;;;;;25.95;11.23;;;;;;;6.37;99.46;101261.94;4971214;28;20069;-73
2021/04/20 02:01:30;;;;;;;26.30;10.95;;;;;;;6.26;99.38;101263.34;4969140;28;20399;-73
2021/04/20 02:03:55;;;;;;;23.23;11.98;;;;;;;6.28;99.65;101261.94;4963636;28;20039;-74
2021/04/20 02:06:23;;;;;;;22.80;10.98;;;;;;;6.07;99.82;101258.25;4972604;28;20585;-74
2021/04/20 02:08:49;;;;;;;24.35;12.30;;;;;;;6.01;100.00;101251.47;4969310;28;20039;-73
2021/04/20 02:11:18;;;;;;;26.42;12.40;;;;;;;6.09;100.00;101252.59;4965278;28;20039;-74
2021/04/20 02:13:44;;;;;;;23.83;12.60;;;;;;;6.04;99.69;101264.22;4964824;28;20070;-74
2021/04/20 02:16:10;;;;;;;26.73;12.77;;;;;;;5.98;100.00;101259.31;4972271;28;20026;-73
2021/04/20 02:18:40;;;;;;;28.00;12.88;;;;;;;6.03;100.00;101253.84;4966484;28;20041;-74
2021/04/20 02:21:06;;;;;;;23.35;12.38;;;;;;;6.13;100.00;101256.22;4972294;28;20086;-74
2021/04/20 02:23:32;;;;;;;22.88;12.05;;;;;;;6.06;100.00;101255.88;4967649;28;20027;-73
2021/04/20 02:26:07;;;;;;;27.35;11.55;;;;;;;5.95;100.00;101247.34;4969428;28;20062;-74
2021/04/20 02:28:33;;;;;;;23.15;11.80;;;;;;;6.02;100.00;101238.91;4972257;28;20042;-74
2021/04/20 02:31:05;;;;;;;20.75;10.35;;;;;;;5.89;100.00;101237.91;4955085;28;20050;-74
2021/04/20 02:33:31;;;;;;;22.75;11.48;;;;;;;6.02;100.00;101245.00;4975077;28;20055;-74
2021/04/20 02:35:57;;;;;;;21.92;11.00;;;;;;;6.02;100.00;101236.22;4969096;28;20058;-73
2021/04/20 02:38:24;;;;;;;24.25;12.07;;;;;;;6.09;100.00;101237.34;4971226;28;20054;-74
2021/04/20 02:40:54;;;;;;;29.33;12.93;;;;;;;5.87;100.00;101231.28;4962121;28;20081;-74
2021/04/20 02:43:20;;;;;;;24.27;12.15;;;;;;;5.90;100.00;101231.47;4962227;28;20364;-73
2021/04/20 02:45:48;;;;;;;24.13;12.30;;;;;;;5.96;100.00;101237.47;4964862;28;20117;-74
2021/04/20 02:48:14;;;;;;;24.80;13.05;;;;;;;6.00;100.00;101228.50;4968844;28;20039;-73
2021/04/20 02:50:42;;;;;;;28.65;12.95;;;;;;;5.78;100.00;101228.56;4960536;28;20035;-74
2021/04/20 02:53:08;;;;;;;25.90;12.45;;;;;;;5.67;100.00;101231.81;4967825;28;20038;-74
2021/04/20 02:55:34;;;;;;;26.80;12.77;;;;;;;5.63;100.00;101234.31;4965426;28;20407;-73
2021/04/20 02:58:02;;;;;;;29.15;12.15;;;;;;;5.68;100.00;101233.38;4968998;28;20039;-75
2021/04/20 03:00:29;;;;;;;24.92;12.75;;;;;;;5.75;100.00;101226.47;4963862;28;20038;-73
2021/04/20 03:02:58;;;;;;;26.30;12.27;;;;;;;5.83;100.00;101224.94;4966605;28;20116;-74
2021/04/20 03:05:28;;;;;;;27.45;13.13;;;;;;;5.72;100.00;101229.78;4966826;28;20073;-74
2021/04/20 03:07:54;;;;;;;27.03;13.40;;;;;;;5.66;100.00;101227.53;4971446;28;20031;-73
2021/04/20 03:10:21;;;;;;;25.25;12.85;;;;;;;5.76;100.00;101225.41;4970685;28;20031;-74
2021/04/20 03:12:47;;;;;;;23.23;13.80;;;;;;;5.61;100.00;101233.81;4963232;28;20031;-73
2021/04/20 03:15:15;;;;;;;26.83;12.93;;;;;;;5.78;100.00;101219.75;4966657;28;20070;-73
2021/04/20 03:17:43;;;;;;;23.38;12.90;;;;;;;5.79;100.00;101222.09;4971338;28;20195;-73
2021/04/20 03:20:11;;;;;;;33.72;13.85;;;;;;;5.85;100.00;101225.44;4961959;28;20488;-73
2021/04/20 03:22:39;;;;;;;28.63;14.00;;;;;;;5.86;100.00;101229.72;4960072;28;20023;-73
2021/04/20 03:25:04;;;;;;;27.63;14.63;;;;;;;5.88;100.00;101222.19;4970570;28;20054;-73
2021/04/20 03:27:30;;;;;;;25.75;14.10;;;;;;;5.82;100.00;101207.34;4970560;28;20034;-74
2021/04/20 03:29:55;;;;;;;24.35;13.35;;;;;;;5.65;100.00;101218.75;4966463;28;20037;-73
2021/04/20 03:32:21;;;;;;;24.42;13.65;;;;;;;5.64;100.00;101219.84;4965956;28;20110;-73
2021/04/20 03:34:57;;;;;;;26.90;14.70;;;;;;;5.72;100.00;101220.97;4964748;28;20034;-74
2021/04/20 03:37:32;;;;;;;24.13;13.50;;;;;;;5.88;100.00;101211.50;4957069;28;20091;-74
2021/04/20 03:40:01;;;;;;;28.58;13.30;;;;;;;5.75;100.00;101215.81;4956922;28;20121;-73
2021/04/20 03:42:29;;;;;;;23.35;13.50;;;;;;;5.59;99.48;101220.00;4955654;28;20059;-74
2021/04/20 03:45:00;;;;;;;23.10;12.57;;;;;;;5.54;100.00;101214.75;4952219;28;20031;-73
2021/04/20 03:47:33;;;;;;;26.80;12.20;;;;;;;5.48;100.00;101215.97;4958259;28;20442;-74
2021/04/20 03:50:01;;;;;;;22.35;12.02;;;;;;;5.51;100.00;101212.72;4957277;28;20503;-74
2021/04/20 03:52:31;;;;;;;20.75;11.40;;;;;;;5.73;100.00;101198.53;4965009;28;20026;-74
2021/04/20 03:54:59;;;;;;;27.65;12.23;;;;;;;5.56;99.56;101206.44;4972926;28;20046;-74
2021/04/20 03:57:27;;;;;;;26.98;12.40;;;;;;;5.42;100.00;101214.53;4968913;28;20039;-74
2021/04/20 03:59:56;;;;;;;23.45;11.43;;;;;;;5.40;100.00;101204.16;4973102;28;20069;-74
2021/04/20 04:02:23;;;;;;;23.98;12.30;;;;;;;5.45;100.00;101212.06;4955452;28;20081;-74
2021/04/20 04:04:50;;;;;;;21.08;11.57;;;;;;;5.47;100.00;101206.41;4965062;28;20034;-74
2021/04/20 04:07:18;;;;;;;23.33;11.57;;;;;;;5.62;100.00;101213.22;4969853;28;20035;-74
2021/04/20 04:09:47;;;;;;;28.02;12.70;;;;;;;5.45;100.00;101217.41;4961605;28;20727;-73
2021/04/20 04:12:14;;;;;;;27.20;11.68;;;;;;;5.33;100.00;101214.50;4948453;28;20941;-73
2021/04/20 04:14:40;;;;;;;21.42;11.32;;;;;;;5.25;100.00;101206.44;4954227;28;20149;-74
2021/04/20 04:17:08;;;;;;;22.42;11.65;;;;;;;5.22;100.00;101215.06;4974541;28;20109;-74
2021/04/20 04:19:44;;;;;;;22.98;12.07;;;;;;;5.33;100.00;101205.69;4976120;28;20054;-74
2021/04/20 04:22:31;;;;;;;22.88;11.52;;;;;;;5.35;100.00;101215.00;4976796;28;20041;-74
2021/04/20 04:24:59;;;;;;;22.63;10.20;;;;;;;5.20;100.00;101207.38;4976386;28;20039;-74
2021/04/20 04:27:32;;;;;;;20.90;10.35;;;;;;;5.15;100.00;101217.38;4961068;28;20035;-74
2021/04/20 04:30:01;;;;;;;22.35;11.50;;;;;;;5.03;100.00;101209.13;4978411;28;20035;-74
2021/04/20 04:32:31;;;;;;;21.83;10.38;;;;;;;5.21;100.00;101211.59;4986982;28;20023;-74
2021/04/20 04:34:57;;;;;;;23.17;10.00;;;;;;;5.19;100.00;101210.31;4973640;28;20049;-74
2021/04/20 04:37:23;;;;;;;25.30;10.85;;;;;;;5.22;100.00;101215.84;4971832;28;20035;-74
2021/04/20 04:39:49;;;;;;;22.70;10.45;;;;;;;5.45;100.00;101209.41;4976205;28;20117;-73
2021/04/20 04:42:15;;;;;;;18.88;9.75;;;;;;;5.48;100.00;101214.09;4991559;28;20105;-74
2021/04/20 04:44:41;;;;;;;19.85;10.00;;;;;;;5.45;100.00;101217.41;4991486;28;20043;-74
2021/04/20 04:47:07;;;;;;;17.40;10.07;;;;;;;5.40;100.00;101214.84;4966183;28;20118;-74
2021/04/20 04:49:33;;;;;;;21.67;10.68;;;;;;;5.47;100.00;101214.41;4976217;28;20061;-74
2021/04/20 04:51:59;;;;;;;20.35;10.93;;;;;;;5.23;100.00;101217.41;4975358;28;20085;-74
2021/04/20 04:54:26;;;;;;;19.42;10.00;;;;;;;5.33;100.00;101217.16;4968436;28;20117;-74
2021/04/20 04:56:53;;;;;;;17.92;9.73;;;;;;;5.69;100.00;101210.91;4973279;28;20030;-75
2021/04/20 04:59:22;;;;;;;23.67;9.88;;;;;;;5.83;100.00;101208.91;4987936;28;20046;-74
2021/04/20 05:01:50;;;;;;;19.50;10.40;;;;;;;5.90;100.00;101211.97;4964942;28;20026;-74
2021/04/20 05:04:16;;;;;;;23.17;10.63;;;;;;;6.02;100.00;101217.53;4974452;28;20022;-74
2021/04/20 05:06:45;;;;;;;17.70;9.40;;;;;;;6.08;100.00;101213.59;4974723;28;20092;-74
2021/04/20 05:09:13;;;;;;;22.45;9.60;;;;;;;6.10;100.00;101208.72;4973309;28;20041;-74
2021/04/20 05:11:43;;;;;;;22.27;9.77;;;;;;;6.25;100.00;101200.28;4956250;28;20023;-74
2021/04/20 05:14:11;;;;;;;22.98;9.63;;;;;;;6.14;100.00;101215.03;4974320;28;20047;-74
2021/04/20 05:16:39;;;;;;;17.38;8.80;;;;;;;6.08;100.00;101205.56;4968273;28;20391;-74
2021/04/20 05:19:10;;;;;;;19.00;9.38;;;;;;;6.26;100.00;101212.53;4967888;28;20046;-74
2021/04/20 05:21:36;;;;;;;21.27;9.63;;;;;;;6.29;100.00;101203.91;4967172;28;20126;-74
2021/04/20 05:24:02;;;;;;;23.27;9.43;;;;;;;6.45;100.00;101204.22;4962199;28;20027;-74
2021/04/20 05:26:31;;;;;;;17.77;9.18;;;;;;;6.59;100.00;101205.66;4964204;28;20624;-74
2021/04/20 05:29:01;;;;;;;19.80;8.45;;;;;;;6.81;100.00;101207.41;4973123;28;20081;-74
2021/04/20 05:31:28;;;;;;;18.52;9.40;;;;;;;7.08;99.24;101202.47;4962878;28;20487;-74
2021/04/20 05:34:05;;;;;;;21.63;9.35;;;;;;;7.25;97.69;101199.78;4967346;28;20027;-74
2021/04/20 05:36:32;;;;;;;20.10;8.57;;;;;;;7.36;97.70;101199.44;4959069;28;20462;-74
2021/04/20 05:39:01;;;;;;;18.48;8.45;;;;;;;7.51;97.18;101199.69;4965136;28;20053;-74
2021/04/20 05:41:29;;;;;;;17.08;7.85;;;;;;;7.67;96.92;101199.97;4965575;28;20041;-74
2021/04/20 05:43:57;;;;;;;12.25;7.53;;;;;;;7.73;96.48;101193.31;4963622;28;20443;-74
2021/04/20 05:46:23;;;;;;;21.58;8.27;;;;;;;7.92;95.72;101197.19;4964566;28;20043;-74
2021/04/20 05:48:51;;;;;;;16.33;8.20;;;;;;;8.07;95.46;101206.59;4964695;28;20035;-74
2021/04/20 05:51:17;;;;;;;19.10;7.82;;;;;;;8.06;95.64;101205.00;4968788;28;20463;-74
2021/04/20 05:53:44;;;;;;;17.98;7.63;;;;;;;8.13;96.26;101205.25;4973572;28;20033;-74
2021/04/20 05:56:10;;;;;;;14.52;7.10;;;;;;;8.45;96.13;101206.53;4964058;28;20038;-73
2021/04/20 05:58:36;;;;;;;17.23;7.15;;;;;;;8.53;94.63;101214.53;4964112;28;20443;-74
2021/04/20 06:01:03;;;;;;;17.80;7.40;;;;;;;8.56;94.92;101210.38;4967718;28;20400;-74
2021/04/20 06:03:29;;;;;;;15.52;6.30;;;;;;;8.88;93.82;101206.97;4948283;28;20042;-74
2021/04/20 06:06:01;;;;;;;14.57;6.18;;;;;;;8.97;92.80;101219.22;4962510;28;20043;-74
2021/04/20 06:08:27;;;;;;;;;;;;;;;9.43;91.08;101209.28;4966965;28;20042;-74
2021/04/20 06:10:52;;;;;;;13.10;5.93;;;;;;;9.53;89.61;101203.47;4971808;28;19910;-74
2021/04/20 06:13:18;;;;;;;15.13;5.88;;;;;;;9.67;89.26;101212.81;4966584;28;20038;-73
2021/04/20 06:15:45;;;;;;;14.23;5.93;;;;;;;9.80;87.33;101210.91;4969088;28;20101;-73
2021/04/20 06:18:10;;;;;;;11.15;5.97;;;;;;;9.98;87.32;101212.25;4968167;28;20030;-74
2021/04/20 06:20:36;;;;;;;12.27;5.90;;;;;;;10.14;86.79;101213.19;4970813;28;20042;-74
2021/04/20 06:23:04;;;;;;;14.18;6.50;;;;;;;10.07;85.90;101214.81;4972583;28;20531;-74
2021/04/20 06:25:31;;;;;;;13.82;6.18;;;;;;;10.38;85.43;101217.75;4972087;28;20034;-73
2021/04/20 06:27:57;;;;;;;12.73;5.68;;;;;;;10.65;85.10;101215.09;4964809;28;20038;-74
2021/04/20 06:30:23;;;;;;;11.20;5.93;;;;;;;10.82;83.79;101214.81;4970537;28;20133;-74
2021/04/20 06:32:49;;;;;;;9.60;5.63;;;;;;;10.84;81.98;101214.47;4970361;28;20562;-74
2021/04/20 06:35:19;;;;;;;12.80;6.32;;;;;;;11.05;82.57;101217.78;4968612;28;20069;-73
2021/04/20 06:37:46;;;;;;;13.50;5.40;;;;;;;11.34;80.48;101216.63;4965096;28;20089;-73
2021/04/20 06:40:15;;;;;;;13.70;5.28;;;;;;;11.50;78.37;101210.13;4970414;28;20133;-73
2021/04/20 06:42:46;;;;;;;9.60;4.72;;;;;;;11.65;78.51;101212.06;4971759;28;20100;-73
2021/04/20 06:45:17;;;;;;;11.30;4.57;;;;;;;11.99;76.60;101210.59;4967561;28;20404;-73
2021/04/20 06:47:59;;;;;;;9.60;4.82;;;;;;;12.23;75.35;101212.28;4964982;28;20388;-74
2021/04/20 06:50:25;;;;;;;;;;;;;;;11.91;75.31;101211.53;4972611;28;20042;-74
2021/04/20 06:52:59;;;;;;;13.48;5.00;;;;;;;12.06;75.93;101210.75;4970330;28;19925;-74
2021/04/20 06:55:43;;;;;;;11.68;4.90;;;;;;;12.40;74.31;101203.81;4971392;28;20035;-74
2021/04/20 06:58:29;;;;;;;9.23;4.28;;;;;;;12.53;72.08;101206.03;4961814;28;20054;-73
2021/04/20 07:00:59;;;;;;;11.50;4.18;;;;;;;12.70;69.18;101216.41;4958815;28;20043;-74
2021/04/20 07:03:35;;;;;;;10.60;4.82;;;;;;;12.75;68.53;101203.75;4970968;28;20109;-74
2021/04/20 07:06:43;;;;;;;7.78;4.03;;;;;;;12.94;70.91;101209.16;4967105;28;20035;-74
2021/04/20 07:09:15;;;;;;;9.98;3.97;;;;;;;12.91;66.78;101212.59;4958187;28;20043;-73
2021/04/20 07:11:46;;;;;;;9.15;4.63;;;;;;;13.12;66.30;101211.13;4962146;28;20068;-73
2021/04/20 07:14:17;;;;;;;;;;;;;;;12.98;66.22;101216.22;4968922;28;20574;-74
2021/04/20 07:16:56;;;;;;;6.53;3.88;;;;;;;13.23;65.09;101209.38;4996775;22;19922;-74
2021/04/20 07:19:41;;;;;;;11.85;4.45;;;;;;;13.78;64.09;101207.25;4986340;28;20034;-73
2021/04/20 07:22:22;;;;;;;8.23;4.70;;;;;;;14.04;63.09;101215.38;4992495;28;20061;-74
2021/04/20 07:24:56;;;;;;;15.93;4.18;;;;;;;14.23;62.01;101201.72;4987670;28;20121;-73
2021/04/20 07:27:34;;;;;;;9.63;4.00;;;;;;;14.33;62.58;101201.91;4977365;28;20149;-70
2021/04/20 07:30:32;;;;;;;9.77;4.45;;;;;;;14.64;63.10;101206.19;4970662;28;20526;-74
2021/04/20 07:33:09;;;;;;;6.82;4.07;;;;;;;14.61;60.72;101198.03;4973214;28;20432;-74
2021/04/20 07:35:54;;;;;;;11.13;4.00;;;;;;;14.68;61.14;101207.03;4977111;28;20046;-74
2021/04/20 07:38:31;;;;;;;8.77;4.00;;;;;;;14.89;62.27;101199.16;4986113;28;20485;-74
2021/04/20 07:41:08;;;;;;;12.23;4.20;;;;;;;15.12;62.27;101199.00;4974330;28;20041;-74
2021/04/20 07:43:52;;;;;;;7.95;3.35;;;;;;;15.42;60.54;101197.03;4986260;28;20095;-75
2021/04/20 07:46:22;;;;;;;10.38;4.05;;;;;;;15.70;57.84;101197.25;4985388;28;20099;-75
2021/04/20 07:48:54;;;;;;;6.45;3.47;;;;;;;15.87;55.50;101191.19;4976342;28;20042;-75
2021/04/20 07:51:43;;;;;;;9.60;3.30;;;;;;;15.58;56.92;101185.91;4963470;28;20030;-75
2021/04/20 07:54:14;;;;;;;7.05;3.95;;;;;;;15.92;57.36;101184.63;4978361;28;20022;-74
2021/04/20 07:56:48;;;;;;;9.23;3.95;;;;;;;15.85;56.72;101181.88;4979070;28;20078;-73
2021/04/20 07:59:19;;;;;;;11.25;3.67;;;;;;;16.25;54.56;101187.97;4979414;28;20042;-73
2021/04/20 08:02:04;;;;;;;5.15;3.08;;;;;;;16.30;54.19;101188.78;4980255;28;20391;-75
2021/04/20 08:04:45;;;;;;;5.05;2.70;;;;;;;16.56;53.55;101183.09;4986725;28;20514;-74
2021/04/20 08:07:29;;;;;;;7.55;2.85;;;;;;;16.88;51.91;101186.72;4982633;28;20030;-74
2021/04/20 08:09:59;;;;;;;8.40;3.30;;;;;;;16.99;51.72;101187.53;4970805;28;20031;-74
2021/04/20 08:12:28;;;;;;;5.07;2.70;;;;;;;16.92;50.44;101184.78;4990662;28;20980;-75
2021/04/20 08:14:59;;;;;;;9.57;3.47;;;;;;;17.10;49.88;101189.13;4982552;28;20093;-72
2021/04/20 08:17:24;;;;;;;10.00;3.08;;;;;;;17.07;49.26;101186.41;4987214;28;20034;-75
2021/04/20 08:19:56;;;;;;;4.80;2.90;;;;;;;17.35;49.22;101186.44;4985082;28;20026;-75
2021/04/20 08:22:22;;;;;;;6.63;2.95;;;;;;;17.72;49.16;101191.53;4986285;28;20029;-74
2021/04/20 08:25:26;;;;;;;8.10;2.88;;;;;;;18.11;49.66;101186.84;4978208;28;20042;-74
2021/04/20 08:28:07;;;;;;;8.80;2.92;;;;;;;18.00;47.05;101180.63;4950244;28;20047;-75
2021/04/20 08:30:38;;;;;;;8.40;2.90;;;;;;;18.00;46.84;101188.81;4985345;28;20034;-75
2021/04/20 08:33:14;;;;;;;9.38;2.30;;;;;;;18.13;48.76;101181.00;4989167;28;20038;-74
2021/04/20 08:35:41;;;;;;;4.45;2.47;;;;;;;18.45;46.47;101177.03;4989786;28;20047;-74
2021/04/20 08:38:35;;;;;;;6.18;2.30;;;;;;;18.64;46.60;101173.84;4991484;28;20062;-73
2021/04/20 08:41:20;;;;;;;6.75;2.58;;;;;;;18.56;46.04;101174.28;4989465;28;20044;-74
2021/04/20 08:44:04;;;;;;;6.40;2.30;;;;;;;18.71;46.50;101170.31;4989974;28;20479;-74
2021/04/20 08:46:42;;;;;;;7.40;2.40;;;;;;;18.86;46.21;101169.84;4987791;28;20121;-73
2021/04/20 08:49:26;;;;;;;6.40;2.20;;;;;;;19.13;43.58;101170.06;4973643;28;20530;-74
2021/04/20 08:51:59;;;;;;;4.35;1.95;;;;;;;19.31;44.01;101169.97;4974004;28;20411;-74
2021/04/20 08:54:47;;;;;;;5.43;2.33;;;;;;;19.57;43.29;101172.91;4982136;28;20041;-74
2021/04/20 08:57:22;;;;;;;5.07;2.28;;;;;;;19.60;43.53;101157.66;4971294;28;20035;-73
2021/04/20 09:00:16;;;;;;;4.03;2.15;;;;;;;19.91;44.37;101166.75;4971806;28;20050;-73
2021/04/20 09:02:59;;;;;;;4.30;2.17;;;;;;;20.08;43.01;101165.81;4954816;28;20077;-74
2021/04/20 09:05:37;;;;;;;6.13;1.55;;;;;;;20.01;39.97;101157.69;4975705;28;20100;-74
2021/04/20 09:08:09;;;;;;;7.93;2.30;;;;;;;20.16;40.55;101164.53;4977227;28;20098;-74
2021/04/20 09:10:56;;;;;;;6.30;2.30;;;;;;;20.32;41.79;101164.81;4975947;28;20034;-74
2021/04/20 09:13:25;;;;;;;5.47;2.13;;;;;;;20.32;42.22;101154.63;4975865;28;20038;-74
2021/04/20 09:15:57;;;;;;;8.05;2.28;;;;;;;20.06;41.78;101151.75;4974597;28;20042;-74
2021/04/20 09:18:32;;;;;;;6.70;2.25;;;;;;;20.25;42.59;101162.91;4978598;28;21258;-71
2021/04/20 09:21:16;;;;;;;5.45;2.75;;;;;;;20.52;41.56;101152.03;4974277;28;20406;-74
2021/04/20 09:23:47;;;;;;;4.65;2.05;;;;;;;20.81;40.84;101153.22;4979061;28;20030;-74
2021/04/20 09:26:21;;;;;;;5.30;2.25;;;;;;;21.31;41.15;101151.34;4980121;28;20042;-73
2021/04/20 09:29:13;;;;;;;6.65;2.28;;;;;;;21.73;39.98;101162.81;4981555;28;20066;-73
2021/04/20 09:31:47;;;;;;;3.35;2.25;;;;;;;21.94;40.04;101156.97;4975918;28;20089;-74
2021/04/20 09:34:16;;;;;;;7.93;2.50;;;;;;;21.48;39.33;101160.50;4979111;28;20047;-73
2021/04/20 09:36:42;;;;;;;7.38;1.98;;;;;;;21.67;39.65;101153.50;4979466;28;20171;-74
2021/04/20 09:39:09;;;;;;;3.17;1.83;;;;;;;21.81;38.21;101167.00;4977593;28;20530;-74
2021/04/20 09:41:44;;;;;;;6.18;2.13;;;;;;;21.71;37.19;101155.00;4993779;28;20042;-74
2021/04/20 09:44:28;;;;;;;7.45;2.40;;;;;;;21.88;37.35;101159.44;4971807;28;20034;-74
2021/04/20 09:47:35;;;;;;;4.78;2.00;;;;;;;21.59;35.90;101150.13;4992950;28;20030;-75
2021/04/20 09:50:22;;;;;;;6.60;2.00;;;;;;;21.85;35.93;101157.53;4968542;28;20133;-75
2021/04/20 09:52:54;;;;;;;3.25;1.92;;;;;;;21.70;37.40;101158.94;4967043;28;20041;-74
2021/04/20 09:55:28;;;;;;;9.95;2.05;;;;;;;21.96;37.36;101155.38;4990873;28;20026;-74
2021/04/20 09:57:55;;;;;;;3.88;2.38;;;;;;;22.17;35.79;101154.19;4983379;28;20127;-74
2021/04/20 10:00:23;;;;;;;6.63;2.30;;;;;;;22.11;34.81;101150.38;4972823;28;20626;-75
2021/04/20 10:03:10;;;;;;;5.75;2.00;;;;;;;22.19;34.96;101158.06;4958957;28;20086;-72
2021/04/20 10:06:04;;;;;;;3.33;1.80;;;;;;;21.49;34.73;101151.06;4965167;28;20439;-76
2021/04/20 10:08:54;;;;;;;7.60;2.00;;;;;;;21.79;36.11;101152.91;4981680;28;20068;-75
2021/04/20 10:11:38;;;;;;;4.10;1.80;;;;;;;22.03;37.94;101144.25;4999078;28;20030;-74
2021/04/20 10:14:27;;;;;;;3.88;1.90;;;;;;;22.53;36.52;101143.28;4991256;28;20038;-75
2021/04/20 10:17:10;;;;;;;4.00;1.77;;;;;;;22.75;34.85;101150.66;4987963;28;20034;-74
2021/04/20 10:20:01;;;;;;;10.52;2.08;;;;;;;22.96;33.62;101138.44;4992482;28;20404;-74
2021/04/20 10:22:37;;;;;;;7.90;1.77;;;;;;;22.10;33.24;101141.38;4990009;28;20022;-74
2021/04/20 10:25:18;;;;;;;6.82;2.30;;;;;;;22.52;34.72;101142.50;4989123;28;20042;-74
2021/04/20 10:27:46;;;;;;;5.32;1.90;;;;;;;22.40;34.22;101140.38;4988331;28;20030;-74
2021/04/20 10:30:18;;;;;;;3.83;2.00;;;;;;;22.66;33.58;101145.00;4982591;28;20047;-75
2021/04/20 10:32:49;;;;;;;2.30;1.67;;;;;;;22.75;35.41;101138.91;4986901;28;20034;-74
2021/04/20 10:35:19;;;;;;;;;;;;;;;23.04;35.00;101134.31;4989711;28;20030;-75
2021/04/20 10:37:50;;;;;;;7.43;1.92;;;;;;;23.21;35.03;101131.16;4971800;28;19914;-74
2021/04/20 10:40:22;;;;;;;5.10;2.08;;;;;;;23.45;34.11;101126.28;4979518;28;20090;-75
2021/04/20 10:42:48;;;;;;;4.63;1.92;;;;;;;22.90;32.50;101127.16;4990375;28;20083;-75
2021/04/20 10:45:16;;;;;;;7.85;2.08;;;;;;;23.30;32.85;101131.34;4994419;28;20062;-75
2021/04/20 10:47:47;;;;;;;4.00;2.13;;;;;;;23.34;33.87;101122.25;4990483;28;20065;-75
2021/04/20 10:50:19;;;;;;;4.35;2.17;;;;;;;23.60;33.44;101126.69;4981970;28;20383;-75
2021/04/20 10:52:45;;;;;;;7.93;1.90;;;;;;;23.61;32.77;101120.00;4988523;28;20058;-75
2021/04/20 10:55:13;;;;;;;4.18;2.08;;;;;;;23.80;32.39;101121.84;4992854;28;20714;-76
2021/04/20 10:57:45;;;;;;;3.45;2.08;;;;;;;23.89;32.89;101116.50;4991353;28;20026;-75
2021/04/20 11:00:16;;;;;;;4.97;2.13;;;;;;;23.18;30.77;101118.28;4956619;28;20090;-74
2021/04/20 11:02:50;;;;;;;5.30;1.77;;;;;;;22.89;30.76;101117.41;4990193;28;20026;-73
2021/04/20 11:05:22;;;;;;;5.03;1.98;;;;;;;23.24;30.71;101115.78;4985432;28;20034;-73
2021/04/20 11:07:52;;;;;;;3.45;2.03;;;;;;;23.54;31.67;101114.69;4963143;28;20054;-74
2021/04/20 11:10:21;;;;;;;8.60;1.95;;;;;;;23.55;33.38;101103.25;4986749;28;20505;-73
2021/04/20 11:12:49;;;;;;;3.67;2.08;;;;;;;23.74;32.12;101105.09;4987051;28;20400;-74
2021/04/20 11:15:22;;;;;;;4.75;2.10;;;;;;;23.58;32.92;101102.38;4981931;28;20037;-74
2021/04/20 11:17:56;;;;;;;4.80;2.10;;;;;;;23.49;34.16;101099.47;4984339;28;20051;-74
2021/04/20 11:20:28;;;;;;;5.60;2.10;;;;;;;23.93;32.69;101103.41;4980645;28;20072;-75
2021/04/20 11:23:19;;;;;;;6.38;2.35;;;;;;;24.23;32.35;101096.72;4943343;28;20022;-74
2021/04/20 11:25:57;;;;;;;5.18;2.40;;;;;;;23.76;32.33;101104.66;4974502;28;20064;-74
2021/04/20 11:28:42;;;;;;;5.15;2.05;;;;;;;24.05;32.92;101091.69;4965899;28;20035;-75
2021/04/20 11:31:19;;;;;;;9.80;2.50;;;;;;;24.01;32.60;101082.75;4981834;28;20041;-74
2021/04/20 11:33:49;;;;;;;5.10;2.17;;;;;;;24.04;32.55;101087.41;4984107;28;20038;-75
2021/04/20 11:36:19;;;;;;;3.22;1.92;;;;;;;23.91;32.21;101103.06;4987670;28;20126;-75
2021/04/20 11:38:48;;;;;;;3.13;2.10;;;;;;;24.22;32.37;101101.44;4979956;28;20035;-73
2021/04/20 11:41:16;;;;;;;3.95;1.90;;;;;;;24.34;32.07;101099.91;4967843;28;20035;-73